AIQ636 VTBD-VVDN
Flight info
| Callsign | AIQ636 |
|---|---|
| Flight time | 1h 20m |
| Altitude | 35000 |
| Route | UPKUP3C UPKUP Y16 BUTRA A1 PAPRA PAPRA2D |
| Aircraft | A320/M-SDE3FGHIRWY/LB1 |
Departure
| Time | 2026-04-21 12:40 |
|---|---|
| Airport | Don Mueang International Airport (VTBD) |
Arrival
| Time | 2026-04-21 14:00 |
|---|---|
| Airport | Da Nang International Airport (VVDN) |
| Time | Latitude | Longitude | Altitude | Speed | Heading |
|---|---|---|---|---|---|
| 2026-04-21 11:20 | 13.91907 | 100.60319 | 21 ft | 0 kts | 208° |
| 2026-04-21 12:25 | 13.91908 | 100.60319 | 17 ft | 2 kts | 208° |
| 2026-04-21 12:26 | 13.91929 | 100.60333 | 19 ft | 4 kts | 217° |
| 2026-04-21 12:26 | 13.91949 | 100.60351 | 19 ft | 4 kts | 233° |
| 2026-04-21 12:26 | 13.91961 | 100.60374 | 19 ft | 4 kts | 273° |
| 2026-04-21 12:26 | 13.91953 | 100.60395 | 19 ft | 4 kts | 300° |
| 2026-04-21 12:27 | 13.91940 | 100.60419 | 20 ft | 4 kts | 298° |
| 2026-04-21 12:27 | 13.91929 | 100.60438 | 21 ft | 3 kts | 299° |
| 2026-04-21 12:27 | 13.91916 | 100.60462 | 17 ft | 4 kts | 299° |
| 2026-04-21 12:27 | 13.91903 | 100.60487 | 18 ft | 4 kts | 299° |
| 2026-04-21 12:28 | 13.91890 | 100.60510 | 20 ft | 3 kts | 298° |
| 2026-04-21 12:28 | 13.91877 | 100.60531 | 19 ft | 4 kts | 329° |
| 2026-04-21 12:28 | 13.91860 | 100.60532 | 20 ft | 4 kts | 27° |
| 2026-04-21 12:28 | 13.91836 | 100.60518 | 20 ft | 4 kts | 29° |
| 2026-04-21 12:29 | 13.91826 | 100.60513 | 17 ft | 0 kts | 28° |
| 2026-04-21 12:32 | 13.91834 | 100.60517 | 20 ft | 2 kts | 29° |
| 2026-04-21 12:32 | 13.91853 | 100.60531 | 17 ft | 4 kts | 47° |
| 2026-04-21 12:32 | 13.91854 | 100.60569 | 17 ft | 7 kts | 108° |
| 2026-04-21 12:32 | 13.91863 | 100.60614 | 19 ft | 7 kts | 44° |
| 2026-04-21 12:33 | 13.91912 | 100.60646 | 17 ft | 9 kts | 28° |
| 2026-04-21 12:33 | 13.91973 | 100.60680 | 18 ft | 11 kts | 28° |
| 2026-04-21 12:33 | 13.92046 | 100.60720 | 18 ft | 13 kts | 29° |
| 2026-04-21 12:33 | 13.92130 | 100.60768 | 18 ft | 15 kts | 29° |
| 2026-04-21 12:34 | 13.92224 | 100.60821 | 18 ft | 15 kts | 28° |
| 2026-04-21 12:34 | 13.92310 | 100.60869 | 19 ft | 13 kts | 28° |
| 2026-04-21 12:34 | 13.92387 | 100.60912 | 18 ft | 12 kts | 28° |
| 2026-04-21 12:34 | 13.92458 | 100.60952 | 17 ft | 11 kts | 28° |
| 2026-04-21 12:35 | 13.92525 | 100.60989 | 19 ft | 13 kts | 28° |
| 2026-04-21 12:35 | 13.92616 | 100.61040 | 17 ft | 16 kts | 30° |
| 2026-04-21 12:35 | 13.92624 | 100.61143 | 18 ft | 19 kts | 119° |
| 2026-04-21 12:35 | 13.92556 | 100.61266 | 17 ft | 20 kts | 120° |
| 2026-04-21 12:36 | 13.92526 | 100.61381 | 16 ft | 16 kts | 59° |
| 2026-04-21 12:36 | 13.92612 | 100.61436 | 17 ft | 14 kts | 28° |
| 2026-04-21 12:36 | 13.92690 | 100.61479 | 17 ft | 12 kts | 28° |
| 2026-04-21 12:36 | 13.92757 | 100.61517 | 17 ft | 10 kts | 30° |
| 2026-04-21 12:37 | 13.92781 | 100.61575 | 17 ft | 8 kts | 101° |
| 2026-04-21 12:37 | 13.92763 | 100.61611 | 17 ft | 1 kts | 119° |
| 2026-04-21 12:37 | 13.92762 | 100.61613 | 20 ft | 0 kts | 119° |
| 2026-04-21 12:37 | 13.92755 | 100.61625 | 17 ft | 4 kts | 119° |
| 2026-04-21 12:38 | 13.92732 | 100.61663 | 17 ft | 9 kts | 129° |
| 2026-04-21 12:38 | 13.92665 | 100.61673 | 17 ft | 12 kts | 207° |
| 2026-04-21 12:38 | 13.92652 | 100.61666 | 17 ft | 0 kts | 208° |
| 2026-04-21 12:39 | 13.92555 | 100.61611 | 17 ft | 48 kts | 208° |
| 2026-04-21 12:39 | 13.92069 | 100.61339 | 16 ft | 110 kts | 208° |
| 2026-04-21 12:39 | 13.91245 | 100.60877 | 19 ft | 158 kts | 208° |
| 2026-04-21 12:39 | 13.90225 | 100.60315 | 474 ft | 168 kts | 205° |
| 2026-04-21 12:40 | 13.89201 | 100.59744 | 1085 ft | 168 kts | 204° |
| 2026-04-21 12:40 | 13.88116 | 100.59151 | 1392 ft | 187 kts | 204° |
| 2026-04-21 12:40 | 13.86970 | 100.58399 | 1684 ft | 211 kts | 225° |
| 2026-04-21 12:40 | 13.86256 | 100.56970 | 2021 ft | 241 kts | 247° |
| 2026-04-21 12:41 | 13.85748 | 100.55235 | 2454 ft | 264 kts | 251° |
| 2026-04-21 12:41 | 13.85285 | 100.53371 | 3189 ft | 272 kts | 254° |
| 2026-04-21 12:41 | 13.84827 | 100.51476 | 4010 ft | 274 kts | 255° |
| 2026-04-21 12:41 | 13.84361 | 100.49601 | 4841 ft | 274 kts | 254° |
| 2026-04-21 12:42 | 13.83586 | 100.47812 | 5666 ft | 276 kts | 236° |
| 2026-04-21 12:42 | 13.82313 | 100.46323 | 6479 ft | 279 kts | 227° |
| 2026-04-21 12:42 | 13.80972 | 100.44873 | 7267 ft | 281 kts | 227° |
| 2026-04-21 12:42 | 13.79594 | 100.43431 | 8012 ft | 285 kts | 222° |
| 2026-04-21 12:43 | 13.77889 | 100.42361 | 8728 ft | 293 kts | 202° |
| 2026-04-21 12:43 | 13.75871 | 100.41968 | 9442 ft | 301 kts | 181° |
| 2026-04-21 12:43 | 13.73770 | 100.42135 | 10130 ft | 305 kts | 176° |
| 2026-04-21 12:43 | 13.71605 | 100.42344 | 10450 ft | 324 kts | 175° |
| 2026-04-21 12:44 | 13.69319 | 100.42610 | 10599 ft | 347 kts | 170° |
| 2026-04-21 12:44 | 13.66991 | 100.43460 | 10882 ft | 363 kts | 152° |
| 2026-04-21 12:44 | 13.64952 | 100.45011 | 11430 ft | 369 kts | 134° |
| 2026-04-21 12:44 | 13.63424 | 100.47131 | 12045 ft | 371 kts | 117° |
| 2026-04-21 12:45 | 13.62582 | 100.49624 | 12726 ft | 370 kts | 100° |
| 2026-04-21 12:45 | 13.62119 | 100.52233 | 13416 ft | 371 kts | 100° |
| 2026-04-21 12:45 | 13.61659 | 100.54851 | 14018 ft | 373 kts | 99° |
| 2026-04-21 12:45 | 13.61391 | 100.57503 | 14554 ft | 375 kts | 89° |
| 2026-04-21 12:46 | 13.61615 | 100.60179 | 15054 ft | 378 kts | 80° |
| 2026-04-21 12:46 | 13.62011 | 100.62819 | 15594 ft | 380 kts | 80° |
| 2026-04-21 12:46 | 13.62409 | 100.65511 | 16105 ft | 382 kts | 81° |
| 2026-04-21 12:46 | 13.62809 | 100.68226 | 16607 ft | 385 kts | 81° |
| 2026-04-21 12:47 | 13.63209 | 100.70959 | 17103 ft | 388 kts | 81° |
| 2026-04-21 12:47 | 13.63606 | 100.73709 | 17583 ft | 391 kts | 81° |
| 2026-04-21 12:47 | 13.64007 | 100.76485 | 18064 ft | 393 kts | 80° |
| 2026-04-21 12:47 | 13.64411 | 100.79273 | 18481 ft | 396 kts | 81° |
| 2026-04-21 12:48 | 13.64820 | 100.82082 | 18877 ft | 398 kts | 81° |
| 2026-04-21 12:48 | 13.65232 | 100.84903 | 19288 ft | 400 kts | 81° |
| 2026-04-21 12:48 | 13.65639 | 100.87705 | 19670 ft | 403 kts | 81° |
| 2026-04-21 12:48 | 13.66055 | 100.90563 | 20061 ft | 405 kts | 80° |
| 2026-04-21 12:49 | 13.66508 | 100.93424 | 20453 ft | 407 kts | 76° |
| 2026-04-21 12:49 | 13.67369 | 100.96196 | 20823 ft | 408 kts | 65° |
| 2026-04-21 12:49 | 13.68716 | 100.98764 | 21205 ft | 409 kts | 55° |
| 2026-04-21 12:49 | 13.70454 | 101.01093 | 21569 ft | 412 kts | 51° |
| 2026-04-21 12:50 | 13.72254 | 101.03392 | 21930 ft | 414 kts | 51° |
| 2026-04-21 12:50 | 13.74065 | 101.05703 | 22299 ft | 416 kts | 51° |
| 2026-04-21 12:50 | 13.75860 | 101.08001 | 22646 ft | 419 kts | 51° |
| 2026-04-21 12:50 | 13.77683 | 101.10345 | 23010 ft | 421 kts | 51° |
| 2026-04-21 12:51 | 13.79511 | 101.12702 | 23354 ft | 423 kts | 51° |
| 2026-04-21 12:51 | 13.81351 | 101.15074 | 23648 ft | 425 kts | 51° |
| 2026-04-21 12:51 | 13.83202 | 101.17454 | 23940 ft | 427 kts | 51° |
| 2026-04-21 12:51 | 13.85061 | 101.19843 | 24226 ft | 429 kts | 51° |
| 2026-04-21 12:52 | 13.86931 | 101.22243 | 24515 ft | 431 kts | 51° |
| 2026-04-21 12:52 | 13.88808 | 101.24658 | 24794 ft | 433 kts | 51° |
| 2026-04-21 12:52 | 13.90673 | 101.27040 | 25064 ft | 434 kts | 50° |
| 2026-04-21 12:52 | 13.92646 | 101.29405 | 25350 ft | 436 kts | 48° |
| 2026-04-21 12:53 | 13.94686 | 101.31722 | 25622 ft | 438 kts | 46° |
| 2026-04-21 12:53 | 13.96767 | 101.34016 | 25914 ft | 439 kts | 46° |
| 2026-04-21 12:53 | 13.98867 | 101.36310 | 26185 ft | 441 kts | 46° |
| 2026-04-21 12:53 | 14.00966 | 101.38620 | 26458 ft | 443 kts | 46° |
| 2026-04-21 12:54 | 14.03061 | 101.40959 | 26717 ft | 445 kts | 47° |
| 2026-04-21 12:54 | 14.04972 | 101.43467 | 26979 ft | 448 kts | 56° |
| 2026-04-21 12:54 | 14.06421 | 101.46267 | 27238 ft | 451 kts | 66° |
| 2026-04-21 12:54 | 14.07415 | 101.49336 | 27491 ft | 454 kts | 76° |
| 2026-04-21 12:55 | 14.08094 | 101.52524 | 27721 ft | 457 kts | 76° |
| 2026-04-21 12:55 | 14.08774 | 101.55724 | 27976 ft | 458 kts | 76° |
| 2026-04-21 12:55 | 14.09461 | 101.58940 | 28225 ft | 460 kts | 76° |
| 2026-04-21 12:55 | 14.10150 | 101.62166 | 28456 ft | 462 kts | 76° |
| 2026-04-21 12:56 | 14.10841 | 101.65404 | 28680 ft | 464 kts | 76° |
| 2026-04-21 12:56 | 14.11535 | 101.68656 | 28908 ft | 466 kts | 76° |
| 2026-04-21 12:56 | 14.12230 | 101.71919 | 29141 ft | 467 kts | 76° |
| 2026-04-21 12:56 | 14.12916 | 101.75154 | 29378 ft | 469 kts | 76° |
| 2026-04-21 12:57 | 14.13612 | 101.78444 | 29593 ft | 471 kts | 76° |
| 2026-04-21 12:57 | 14.14307 | 101.81742 | 29810 ft | 472 kts | 76° |
| 2026-04-21 12:57 | 14.15008 | 101.85052 | 30064 ft | 472 kts | 76° |
| 2026-04-21 12:57 | 14.15709 | 101.88357 | 30339 ft | 472 kts | 76° |
| 2026-04-21 12:58 | 14.16405 | 101.91657 | 30595 ft | 472 kts | 76° |
| 2026-04-21 12:58 | 14.17100 | 101.94962 | 30842 ft | 472 kts | 76° |
| 2026-04-21 12:58 | 14.17951 | 101.98218 | 31096 ft | 470 kts | 70° |
| 2026-04-21 12:58 | 14.18952 | 102.01377 | 31363 ft | 470 kts | 70° |
| 2026-04-21 12:59 | 14.19971 | 102.04579 | 31624 ft | 470 kts | 70° |
| 2026-04-21 12:59 | 14.20987 | 102.07779 | 31893 ft | 469 kts | 70° |
| 2026-04-21 12:59 | 14.21997 | 102.10974 | 32168 ft | 469 kts | 70° |
| 2026-04-21 12:59 | 14.23008 | 102.14173 | 32439 ft | 469 kts | 70° |
| 2026-04-21 13:00 | 14.24018 | 102.17366 | 32704 ft | 469 kts | 70° |
| 2026-04-21 13:00 | 14.25025 | 102.20564 | 32967 ft | 469 kts | 70° |
| 2026-04-21 13:00 | 14.26037 | 102.23762 | 33220 ft | 469 kts | 70° |
| 2026-04-21 13:00 | 14.27041 | 102.26920 | 33463 ft | 470 kts | 70° |
| 2026-04-21 13:01 | 14.28058 | 102.30122 | 33729 ft | 470 kts | 70° |
| 2026-04-21 13:01 | 14.29071 | 102.33327 | 33978 ft | 470 kts | 70° |
| 2026-04-21 13:01 | 14.30081 | 102.36533 | 34227 ft | 470 kts | 70° |
| 2026-04-21 13:01 | 14.31083 | 102.39731 | 34481 ft | 469 kts | 70° |
| 2026-04-21 13:02 | 14.32082 | 102.42924 | 34722 ft | 468 kts | 70° |
| 2026-04-21 13:02 | 14.35066 | 102.52436 | 34824 ft | 466 kts | 70° |
| 2026-04-21 13:03 | 14.37066 | 102.58793 | 34824 ft | 466 kts | 70° |
| 2026-04-21 13:03 | 14.39147 | 102.65116 | 34824 ft | 465 kts | 68° |
| 2026-04-21 13:04 | 14.41439 | 102.71349 | 34824 ft | 465 kts | 66° |
| 2026-04-21 13:04 | 14.43754 | 102.77529 | 34822 ft | 465 kts | 67° |
| 2026-04-21 13:05 | 14.46030 | 102.83768 | 34823 ft | 465 kts | 68° |
| 2026-04-21 13:05 | 14.48269 | 102.90027 | 34824 ft | 465 kts | 68° |
| 2026-04-21 13:06 | 14.50509 | 102.96286 | 34827 ft | 465 kts | 68° |
| 2026-04-21 13:06 | 14.52767 | 103.02543 | 34829 ft | 465 kts | 68° |
| 2026-04-21 13:07 | 14.55006 | 103.08762 | 34839 ft | 466 kts | 68° |
| 2026-04-21 13:07 | 14.57260 | 103.15031 | 34833 ft | 466 kts | 67° |
| 2026-04-21 13:08 | 14.59510 | 103.21306 | 34839 ft | 466 kts | 67° |
| 2026-04-21 13:08 | 14.61766 | 103.27589 | 34837 ft | 467 kts | 67° |
| 2026-04-21 13:09 | 14.64006 | 103.33826 | 34838 ft | 466 kts | 67° |
| 2026-04-21 13:09 | 14.66254 | 103.40108 | 34838 ft | 466 kts | 67° |
| 2026-04-21 13:10 | 14.68500 | 103.46391 | 34839 ft | 466 kts | 67° |
| 2026-04-21 13:10 | 14.70744 | 103.52672 | 34842 ft | 466 kts | 67° |
| 2026-04-21 13:11 | 14.72970 | 103.58906 | 34846 ft | 465 kts | 67° |
| 2026-04-21 13:11 | 14.75204 | 103.65167 | 34844 ft | 464 kts | 67° |
| 2026-04-21 13:12 | 14.77431 | 103.71424 | 34841 ft | 464 kts | 68° |
| 2026-04-21 13:12 | 14.79637 | 103.77635 | 34839 ft | 464 kts | 68° |
| 2026-04-21 13:13 | 14.81842 | 103.83896 | 34826 ft | 463 kts | 68° |
| 2026-04-21 13:13 | 14.84013 | 103.90167 | 34831 ft | 463 kts | 68° |
| 2026-04-21 13:14 | 14.86170 | 103.96438 | 34838 ft | 463 kts | 68° |
| 2026-04-21 13:14 | 14.88309 | 104.02655 | 34836 ft | 462 kts | 68° |
| 2026-04-21 13:15 | 14.90467 | 104.08902 | 34836 ft | 461 kts | 68° |
| 2026-04-21 13:15 | 14.92623 | 104.15148 | 34826 ft | 461 kts | 68° |
| 2026-04-21 13:16 | 14.94772 | 104.21395 | 34822 ft | 461 kts | 68° |
| 2026-04-21 13:16 | 14.96921 | 104.27637 | 34831 ft | 460 kts | 68° |
| 2026-04-21 13:17 | 14.99049 | 104.33830 | 34829 ft | 460 kts | 68° |
| 2026-04-21 13:17 | 15.01191 | 104.40058 | 34828 ft | 459 kts | 68° |
| 2026-04-21 13:18 | 15.03332 | 104.46279 | 34825 ft | 459 kts | 68° |
| 2026-04-21 13:18 | 15.05467 | 104.52503 | 34819 ft | 459 kts | 68° |
| 2026-04-21 13:19 | 15.07576 | 104.58684 | 34823 ft | 459 kts | 68° |
| 2026-04-21 13:19 | 15.09696 | 104.64912 | 34828 ft | 459 kts | 68° |
| 2026-04-21 13:20 | 15.11821 | 104.71137 | 34833 ft | 459 kts | 68° |
| 2026-04-21 13:20 | 15.13955 | 104.77363 | 34839 ft | 459 kts | 68° |
| 2026-04-21 13:21 | 15.16070 | 104.83557 | 34840 ft | 460 kts | 68° |
| 2026-04-21 13:21 | 15.18192 | 104.89802 | 34840 ft | 460 kts | 68° |
| 2026-04-21 13:22 | 15.20319 | 104.96054 | 34843 ft | 460 kts | 68° |
| 2026-04-21 13:22 | 15.22449 | 105.02305 | 34825 ft | 460 kts | 68° |
| 2026-04-21 13:23 | 15.24574 | 105.08558 | 34829 ft | 460 kts | 68° |
| 2026-04-21 13:23 | 15.26677 | 105.14767 | 34827 ft | 460 kts | 68° |
| 2026-04-21 13:24 | 15.28797 | 105.21020 | 34828 ft | 460 kts | 68° |
| 2026-04-21 13:24 | 15.30912 | 105.27269 | 34829 ft | 460 kts | 68° |
| 2026-04-21 13:25 | 15.33025 | 105.33512 | 34831 ft | 459 kts | 68° |
| 2026-04-21 13:25 | 15.35142 | 105.39769 | 34819 ft | 467 kts | 68° |
| 2026-04-21 13:26 | 15.37296 | 105.46143 | 34819 ft | 469 kts | 68° |
| 2026-04-21 13:26 | 15.39446 | 105.52527 | 34822 ft | 469 kts | 68° |
| 2026-04-21 13:27 | 15.41590 | 105.58919 | 34821 ft | 470 kts | 70° |
| 2026-04-21 13:27 | 15.43142 | 105.65475 | 34830 ft | 472 kts | 74° |
| 2026-04-21 13:28 | 15.44616 | 105.72108 | 34827 ft | 472 kts | 74° |
| 2026-04-21 13:28 | 15.46097 | 105.78747 | 34840 ft | 473 kts | 74° |
| 2026-04-21 13:29 | 15.47577 | 105.85390 | 34839 ft | 473 kts | 74° |
| 2026-04-21 13:29 | 15.49041 | 105.91995 | 34834 ft | 473 kts | 74° |
| 2026-04-21 13:30 | 15.50514 | 105.98644 | 34842 ft | 473 kts | 74° |
| 2026-04-21 13:30 | 15.51993 | 106.05293 | 34844 ft | 473 kts | 74° |
| 2026-04-21 13:31 | 15.52732 | 106.08621 | 34468 ft | 474 kts | 74° |
| 2026-04-21 13:31 | 15.53459 | 106.11919 | 34224 ft | 467 kts | 74° |
| 2026-04-21 13:31 | 15.54179 | 106.15196 | 34000 ft | 466 kts | 74° |
| 2026-04-21 13:31 | 15.54898 | 106.18471 | 33766 ft | 466 kts | 74° |
| 2026-04-21 13:32 | 15.55608 | 106.21701 | 33528 ft | 466 kts | 74° |
| 2026-04-21 13:32 | 15.56329 | 106.24980 | 33273 ft | 466 kts | 74° |
| 2026-04-21 13:32 | 15.57051 | 106.28260 | 33022 ft | 467 kts | 74° |
| 2026-04-21 13:32 | 15.57774 | 106.31540 | 32781 ft | 467 kts | 74° |
| 2026-04-21 13:33 | 15.58499 | 106.34828 | 32516 ft | 467 kts | 74° |
| 2026-04-21 13:33 | 15.59220 | 106.38109 | 32271 ft | 467 kts | 75° |
| 2026-04-21 13:33 | 15.59938 | 106.41395 | 32030 ft | 467 kts | 75° |
| 2026-04-21 13:33 | 15.60655 | 106.44677 | 31788 ft | 467 kts | 75° |
| 2026-04-21 13:34 | 15.61363 | 106.47919 | 31554 ft | 467 kts | 75° |
| 2026-04-21 13:34 | 15.62083 | 106.51211 | 31326 ft | 468 kts | 75° |
| 2026-04-21 13:34 | 15.62805 | 106.54505 | 31095 ft | 468 kts | 75° |
| 2026-04-21 13:34 | 15.63531 | 106.57801 | 30857 ft | 469 kts | 75° |
| 2026-04-21 13:35 | 15.64254 | 106.61097 | 30627 ft | 468 kts | 75° |
| 2026-04-21 13:35 | 15.64972 | 106.64387 | 30411 ft | 467 kts | 75° |
| 2026-04-21 13:35 | 15.65687 | 106.67668 | 30184 ft | 465 kts | 75° |
| 2026-04-21 13:35 | 15.66399 | 106.70939 | 29960 ft | 464 kts | 75° |
| 2026-04-21 13:36 | 15.67098 | 106.74153 | 29700 ft | 462 kts | 75° |
| 2026-04-21 13:36 | 15.67804 | 106.77397 | 29449 ft | 460 kts | 75° |
| 2026-04-21 13:36 | 15.68506 | 106.80633 | 29194 ft | 458 kts | 75° |
| 2026-04-21 13:36 | 15.69205 | 106.83856 | 28934 ft | 458 kts | 75° |
| 2026-04-21 13:37 | 15.69903 | 106.87078 | 28677 ft | 457 kts | 75° |
| 2026-04-21 13:37 | 15.70600 | 106.90290 | 28414 ft | 455 kts | 75° |
| 2026-04-21 13:37 | 15.71297 | 106.93485 | 28176 ft | 453 kts | 75° |
| 2026-04-21 13:37 | 15.71990 | 106.96670 | 27935 ft | 452 kts | 75° |
| 2026-04-21 13:38 | 15.72679 | 106.99844 | 27688 ft | 450 kts | 75° |
| 2026-04-21 13:38 | 15.73355 | 107.02963 | 27441 ft | 448 kts | 75° |
| 2026-04-21 13:38 | 15.74037 | 107.06109 | 27213 ft | 446 kts | 76° |
| 2026-04-21 13:38 | 15.74715 | 107.09241 | 26971 ft | 444 kts | 76° |
| 2026-04-21 13:39 | 15.75387 | 107.12357 | 26732 ft | 442 kts | 76° |
| 2026-04-21 13:39 | 15.76058 | 107.15469 | 26494 ft | 440 kts | 76° |
| 2026-04-21 13:39 | 15.76728 | 107.18564 | 26258 ft | 439 kts | 75° |
| 2026-04-21 13:39 | 15.77482 | 107.21623 | 26017 ft | 436 kts | 73° |
| 2026-04-21 13:40 | 15.78318 | 107.24624 | 25485 ft | 431 kts | 72° |
| 2026-04-21 13:40 | 15.79207 | 107.27588 | 24892 ft | 428 kts | 71° |
| 2026-04-21 13:40 | 15.80110 | 107.30526 | 24312 ft | 426 kts | 71° |
| 2026-04-21 13:40 | 15.80990 | 107.33410 | 23742 ft | 423 kts | 71° |
| 2026-04-21 13:41 | 15.81860 | 107.36321 | 23142 ft | 421 kts | 72° |
| 2026-04-21 13:41 | 15.82707 | 107.39215 | 22602 ft | 416 kts | 72° |
| 2026-04-21 13:41 | 15.83529 | 107.42074 | 22112 ft | 411 kts | 72° |
| 2026-04-21 13:41 | 15.84335 | 107.44902 | 21629 ft | 406 kts | 72° |
| 2026-04-21 13:42 | 15.85130 | 107.47698 | 21145 ft | 402 kts | 72° |
| 2026-04-21 13:42 | 15.85919 | 107.50463 | 20690 ft | 397 kts | 72° |
| 2026-04-21 13:42 | 15.86704 | 107.53204 | 20239 ft | 394 kts | 72° |
| 2026-04-21 13:42 | 15.87487 | 107.55919 | 19797 ft | 391 kts | 72° |
| 2026-04-21 13:43 | 15.88265 | 107.58611 | 19364 ft | 388 kts | 73° |
| 2026-04-21 13:43 | 15.88725 | 107.61354 | 18920 ft | 386 kts | 89° |
| 2026-04-21 13:43 | 15.88392 | 107.64042 | 18637 ft | 375 kts | 107° |
| 2026-04-21 13:43 | 15.87350 | 107.66436 | 18410 ft | 355 kts | 123° |
| 2026-04-21 13:44 | 15.85791 | 107.68330 | 18185 ft | 337 kts | 140° |
| 2026-04-21 13:44 | 15.83901 | 107.69658 | 17924 ft | 321 kts | 155° |
| 2026-04-21 13:44 | 15.81820 | 107.70533 | 17681 ft | 326 kts | 159° |
| 2026-04-21 13:44 | 15.79786 | 107.71578 | 17426 ft | 327 kts | 147° |
| 2026-04-21 13:45 | 15.78016 | 107.73054 | 17184 ft | 327 kts | 134° |
| 2026-04-21 13:45 | 15.76600 | 107.74887 | 16924 ft | 325 kts | 121° |
| 2026-04-21 13:45 | 15.75626 | 107.76989 | 16677 ft | 323 kts | 105° |
| 2026-04-21 13:45 | 15.75323 | 107.79248 | 16440 ft | 322 kts | 88° |
| 2026-04-21 13:46 | 15.75400 | 107.81561 | 16197 ft | 320 kts | 87° |
| 2026-04-21 13:46 | 15.75493 | 107.83865 | 15957 ft | 319 kts | 87° |
| 2026-04-21 13:46 | 15.75591 | 107.86158 | 15717 ft | 317 kts | 87° |
| 2026-04-21 13:46 | 15.75692 | 107.88442 | 15463 ft | 316 kts | 86° |
| 2026-04-21 13:47 | 15.75796 | 107.90718 | 15238 ft | 315 kts | 86° |
| 2026-04-21 13:47 | 15.75899 | 107.92984 | 15011 ft | 314 kts | 87° |
| 2026-04-21 13:47 | 15.75999 | 107.95243 | 14770 ft | 313 kts | 87° |
| 2026-04-21 13:47 | 15.76099 | 107.97492 | 14542 ft | 312 kts | 87° |
| 2026-04-21 13:48 | 15.76194 | 107.99706 | 14317 ft | 310 kts | 87° |
| 2026-04-21 13:48 | 15.76289 | 108.01937 | 14089 ft | 309 kts | 87° |
| 2026-04-21 13:48 | 15.76386 | 108.04166 | 13861 ft | 308 kts | 87° |
| 2026-04-21 13:48 | 15.76474 | 108.06384 | 13632 ft | 307 kts | 90° |
| 2026-04-21 13:49 | 15.76126 | 108.08552 | 13375 ft | 305 kts | 111° |
| 2026-04-21 13:49 | 15.75077 | 108.10445 | 13119 ft | 303 kts | 131° |
| 2026-04-21 13:49 | 15.73479 | 108.11839 | 12864 ft | 300 kts | 152° |
| 2026-04-21 13:49 | 15.71531 | 108.12584 | 12509 ft | 300 kts | 171° |
| 2026-04-21 13:50 | 15.69488 | 108.12886 | 12085 ft | 302 kts | 173° |
| 2026-04-21 13:50 | 15.67391 | 108.13181 | 11628 ft | 306 kts | 173° |
| 2026-04-21 13:50 | 15.65268 | 108.13482 | 11161 ft | 310 kts | 173° |
| 2026-04-21 13:50 | 15.63195 | 108.14004 | 10689 ft | 304 kts | 153° |
| 2026-04-21 13:51 | 15.61588 | 108.15354 | 10234 ft | 296 kts | 126° |
| 2026-04-21 13:51 | 15.60783 | 108.17273 | 9787 ft | 290 kts | 98° |
| 2026-04-21 13:51 | 15.60844 | 108.19331 | 9308 ft | 285 kts | 82° |
| 2026-04-21 13:51 | 15.61128 | 108.21363 | 8963 ft | 286 kts | 82° |
| 2026-04-21 13:52 | 15.61511 | 108.23390 | 8550 ft | 287 kts | 68° |
| 2026-04-21 13:52 | 15.62665 | 108.25023 | 8116 ft | 288 kts | 36° |
| 2026-04-21 13:52 | 15.64509 | 108.25765 | 7688 ft | 288 kts | 2° |
| 2026-04-21 13:52 | 15.66475 | 108.25607 | 7242 ft | 280 kts | 352° |
| 2026-04-21 13:53 | 15.68376 | 108.25325 | 6838 ft | 271 kts | 351° |
| 2026-04-21 13:53 | 15.70209 | 108.25038 | 6488 ft | 262 kts | 351° |
| 2026-04-21 13:53 | 15.71977 | 108.24765 | 6134 ft | 252 kts | 351° |
| 2026-04-21 13:53 | 15.73675 | 108.24508 | 6006 ft | 244 kts | 351° |
| 2026-04-21 13:54 | 15.75373 | 108.24256 | 5556 ft | 252 kts | 352° |
| 2026-04-21 13:54 | 15.77132 | 108.23997 | 4936 ft | 257 kts | 351° |
| 2026-04-21 13:54 | 15.78860 | 108.23614 | 4580 ft | 250 kts | 347° |
| 2026-04-21 13:54 | 15.80540 | 108.23296 | 4254 ft | 241 kts | 351° |
| 2026-04-21 13:55 | 15.82174 | 108.23055 | 3946 ft | 233 kts | 352° |
| 2026-04-21 13:55 | 15.83735 | 108.22832 | 3663 ft | 226 kts | 352° |
| 2026-04-21 13:55 | 15.85272 | 108.22611 | 3379 ft | 220 kts | 351° |
| 2026-04-21 13:55 | 15.86769 | 108.22394 | 3100 ft | 214 kts | 351° |
| 2026-04-21 13:56 | 15.88228 | 108.22182 | 2835 ft | 210 kts | 351° |
| 2026-04-21 13:56 | 15.89651 | 108.21976 | 2592 ft | 201 kts | 351° |
| 2026-04-21 13:56 | 15.90994 | 108.21782 | 2322 ft | 190 kts | 352° |
| 2026-04-21 13:56 | 15.92272 | 108.21596 | 2077 ft | 182 kts | 351° |
| 2026-04-21 13:57 | 15.93476 | 108.21422 | 1874 ft | 167 kts | 351° |
| 2026-04-21 13:57 | 15.94586 | 108.21261 | 1654 ft | 156 kts | 352° |
| 2026-04-21 13:57 | 15.95645 | 108.21107 | 1467 ft | 151 kts | 352° |
| 2026-04-21 13:57 | 15.96659 | 108.20960 | 1285 ft | 147 kts | 352° |
| 2026-04-21 13:58 | 15.97661 | 108.20814 | 1098 ft | 146 kts | 352° |
| 2026-04-21 13:58 | 15.98665 | 108.20669 | 924 ft | 145 kts | 352° |
| 2026-04-21 13:58 | 15.99662 | 108.20524 | 730 ft | 144 kts | 353° |
| 2026-04-21 13:58 | 16.00655 | 108.20380 | 539 ft | 144 kts | 352° |
| 2026-04-21 13:59 | 16.01643 | 108.20236 | 354 ft | 143 kts | 353° |
| 2026-04-21 13:59 | 16.02630 | 108.20091 | 154 ft | 144 kts | 353° |
| 2026-04-21 13:59 | 16.03606 | 108.19955 | 35 ft | 134 kts | 352° |
| 2026-04-21 13:59 | 16.04350 | 108.19846 | 34 ft | 85 kts | 352° |
| 2026-04-21 14:00 | 16.04763 | 108.19785 | 35 ft | 36 kts | 352° |
| 2026-04-21 14:00 | 16.04875 | 108.19805 | 34 ft | 14 kts | 62° |
| 2026-04-21 14:00 | 16.04890 | 108.19901 | 35 ft | 0 kts | 82° |
| 2026-04-21 14:01 | 16.04891 | 108.19913 | 34 ft | 5 kts | 82° |
| 2026-04-21 14:01 | 16.04898 | 108.19969 | 34 ft | 11 kts | 82° |
| 2026-04-21 14:02 | 16.04907 | 108.20030 | 33 ft | 14 kts | 82° |
| 2026-04-21 14:02 | 16.04912 | 108.20067 | 33 ft | 0 kts | 80° |
| 2026-04-21 14:02 | 16.04913 | 108.20072 | 33 ft | 3 kts | 79° |
| 2026-04-21 14:03 | 16.04995 | 108.20094 | 34 ft | 12 kts | 351° |
| 2026-04-21 14:03 | 16.05084 | 108.20081 | 34 ft | 13 kts | 352° |
| 2026-04-21 14:03 | 16.05164 | 108.20070 | 34 ft | 11 kts | 352° |
| 2026-04-21 14:03 | 16.05171 | 108.20069 | 34 ft | 0 kts | 352° |
| 2026-04-21 14:05 | 16.05172 | 108.20069 | 34 ft | 2 kts | 352° |
| 2026-04-21 14:05 | 16.05215 | 108.20062 | 34 ft | 11 kts | 352° |
| 2026-04-21 14:05 | 16.05281 | 108.20073 | 34 ft | 8 kts | 80° |
| 2026-04-21 14:05 | 16.05288 | 108.20125 | 34 ft | 6 kts | 83° |
| 2026-04-21 14:06 | 16.05293 | 108.20165 | 34 ft | 5 kts | 83° |
| 2026-04-21 14:06 | 16.05295 | 108.20181 | 34 ft | 0 kts | 83° |